sensor_id;sensor_type;location;lat;lon;timestamp;temperature;humidity
13186;DHT22;6658;53.080;7.428;2022-10-31T00:02:16;13.40;99.90
13186;DHT22;6658;53.080;7.428;2022-10-31T00:04:42;13.30;99.90
13186;DHT22;6658;53.080;7.428;2022-10-31T00:07:08;13.30;99.90
13186;DHT22;6658;53.080;7.428;2022-10-31T00:09:34;13.20;99.90
13186;DHT22;6658;53.080;7.428;2022-10-31T00:11:59;13.10;99.90
13186;DHT22;6658;53.080;7.428;2022-10-31T00:14:25;13.00;99.90
13186;DHT22;6658;53.080;7.428;2022-10-31T00:16:50;12.90;99.90
13186;DHT22;6658;53.080;7.428;2022-10-31T00:19:16;12.80;99.90
13186;DHT22;6658;53.080;7.428;2022-10-31T00:21:42;12.70;99.90
13186;DHT22;6658;53.080;7.428;2022-10-31T00:24:08;12.80;99.90
13186;DHT22;6658;53.080;7.428;2022-10-31T00:26:33;12.70;99.90
13186;DHT22;6658;53.080;7.428;2022-10-31T00:29:00;12.60;99.90
13186;DHT22;6658;53.080;7.428;2022-10-31T00:31:25;12.60;99.90
13186;DHT22;6658;53.080;7.428;2022-10-31T00:33:51;12.60;99.90
13186;DHT22;6658;53.080;7.428;2022-10-31T00:36:19;12.50;99.90
13186;DHT22;6658;53.080;7.428;2022-10-31T00:38:45;12.50;99.90
13186;DHT22;6658;53.080;7.428;2022-10-31T00:41:12;12.40;99.90
13186;DHT22;6658;53.080;7.428;2022-10-31T00:43:38;12.30;99.90
13186;DHT22;6658;53.080;7.428;2022-10-31T00:46:04;12.30;99.90
13186;DHT22;6658;53.080;7.428;2022-10-31T00:48:30;12.20;99.90
13186;DHT22;6658;53.080;7.428;2022-10-31T00:50:56;12.20;99.90
13186;DHT22;6658;53.080;7.428;2022-10-31T00:53:21;12.10;99.90
13186;DHT22;6658;53.080;7.428;2022-10-31T00:55:47;12.10;99.90
13186;DHT22;6658;53.080;7.428;2022-10-31T00:58:13;12.10;99.90
13186;DHT22;6658;53.080;7.428;2022-10-31T01:00:38;12.10;99.90
13186;DHT22;6658;53.080;7.428;2022-10-31T01:03:04;12.00;99.90
13186;DHT22;6658;53.080;7.428;2022-10-31T01:05:30;12.10;99.90
13186;DHT22;6658;53.080;7.428;2022-10-31T01:07:56;12.00;99.90
13186;DHT22;6658;53.080;7.428;2022-10-31T01:10:22;12.00;99.90
13186;DHT22;6658;53.080;7.428;2022-10-31T01:12:48;12.00;99.90
13186;DHT22;6658;53.080;7.428;2022-10-31T01:15:20;12.00;99.90
13186;DHT22;6658;53.080;7.428;2022-10-31T01:17:47;12.00;99.90
13186;DHT22;6658;53.080;7.428;2022-10-31T01:20:14;11.90;99.90
13186;DHT22;6658;53.080;7.428;2022-10-31T01:22:40;12.00;99.90
13186;DHT22;6658;53.080;7.428;2022-10-31T01:25:07;12.00;99.90
13186;DHT22;6658;53.080;7.428;2022-10-31T01:27:33;11.90;99.90
13186;DHT22;6658;53.080;7.428;2022-10-31T01:29:58;12.00;99.90
13186;DHT22;6658;53.080;7.428;2022-10-31T01:32:24;12.00;99.90
13186;DHT22;6658;53.080;7.428;2022-10-31T01:34:50;12.00;99.90
13186;DHT22;6658;53.080;7.428;2022-10-31T01:37:16;12.10;99.90
13186;DHT22;6658;53.080;7.428;2022-10-31T01:39:41;12.10;99.90
13186;DHT22;6658;53.080;7.428;2022-10-31T01:42:21;12.20;99.90
13186;DHT22;6658;53.080;7.428;2022-10-31T01:44:56;12.20;99.90
13186;DHT22;6658;53.080;7.428;2022-10-31T01:47:31;12.10;99.90
13186;DHT22;6658;53.080;7.428;2022-10-31T01:50:00;12.10;99.90
13186;DHT22;6658;53.080;7.428;2022-10-31T01:52:43;12.10;99.90
13186;DHT22;6658;53.080;7.428;2022-10-31T01:57:40;12.00;99.90
13186;DHT22;6658;53.080;7.428;2022-10-31T02:00:08;12.00;99.90
13186;DHT22;6658;53.080;7.428;2022-10-31T02:02:35;11.90;99.90
13186;DHT22;6658;53.080;7.428;2022-10-31T02:05:05;11.90;99.90
13186;DHT22;6658;53.080;7.428;2022-10-31T02:07:53;11.90;99.90
13186;DHT22;6658;53.080;7.428;2022-10-31T02:10:22;11.80;99.90
13186;DHT22;6658;53.080;7.428;2022-10-31T02:12:51;11.80;99.90
13186;DHT22;6658;53.080;7.428;2022-10-31T02:15:18;11.80;99.90
13186;DHT22;6658;53.080;7.428;2022-10-31T02:17:44;11.80;99.90
13186;DHT22;6658;53.080;7.428;2022-10-31T02:20:19;11.80;99.90
13186;DHT22;6658;53.080;7.428;2022-10-31T02:28:24;11.80;99.90
13186;DHT22;6658;53.080;7.428;2022-10-31T02:33:48;11.80;99.90
13186;DHT22;6658;53.080;7.428;2022-10-31T02:41:50;11.80;99.90
13186;DHT22;6658;53.080;7.428;2022-10-31T02:47:11;11.80;99.90
13186;DHT22;6658;53.080;7.428;2022-10-31T02:50:07;11.70;99.90
13186;DHT22;6658;53.080;7.428;2022-10-31T02:52:35;11.70;99.90
13186;DHT22;6658;53.080;7.428;2022-10-31T02:58:01;11.60;99.90
13186;DHT22;6658;53.080;7.428;2022-10-31T03:00:30;11.70;99.90
13186;DHT22;6658;53.080;7.428;2022-10-31T03:11:23;11.50;99.90
13186;DHT22;6658;53.080;7.428;2022-10-31T03:13:55;11.40;99.90
13186;DHT22;6658;53.080;7.428;2022-10-31T03:16:39;11.40;99.90
13186;DHT22;6658;53.080;7.428;2022-10-31T03:19:11;11.40;99.90
13186;DHT22;6658;53.080;7.428;2022-10-31T03:24:06;11.30;99.90
13186;DHT22;6658;53.080;7.428;2022-10-31T03:26:36;11.20;99.90
13186;DHT22;6658;53.080;7.428;2022-10-31T03:29:06;11.20;99.90
13186;DHT22;6658;53.080;7.428;2022-10-31T03:31:36;11.10;99.90
13186;DHT22;6658;53.080;7.428;2022-10-31T03:34:04;11.10;99.90
13186;DHT22;6658;53.080;7.428;2022-10-31T03:36:33;11.10;99.90
13186;DHT22;6658;53.080;7.428;2022-10-31T03:39:02;11.10;99.90
13186;DHT22;6658;53.080;7.428;2022-10-31T03:41:32;11.10;99.90
13186;DHT22;6658;53.080;7.428;2022-10-31T03:44:04;11.10;99.90
13186;DHT22;6658;53.080;7.428;2022-10-31T03:46:32;11.10;99.90
13186;DHT22;6658;53.080;7.428;2022-10-31T03:48:58;11.10;99.90
13186;DHT22;6658;53.080;7.428;2022-10-31T03:51:36;11.10;99.90
13186;DHT22;6658;53.080;7.428;2022-10-31T03:54:12;11.10;99.90
13186;DHT22;6658;53.080;7.428;2022-10-31T03:56:55;11.10;99.90
13186;DHT22;6658;53.080;7.428;2022-10-31T03:59:31;11.00;99.90
13186;DHT22;6658;53.080;7.428;2022-10-31T04:02:00;11.00;99.90
13186;DHT22;6658;53.080;7.428;2022-10-31T04:04:29;10.90;99.90
13186;DHT22;6658;53.080;7.428;2022-10-31T04:06:56;10.90;99.90
13186;DHT22;6658;53.080;7.428;2022-10-31T04:09:25;10.80;99.90
13186;DHT22;6658;53.080;7.428;2022-10-31T04:11:54;10.80;99.90
13186;DHT22;6658;53.080;7.428;2022-10-31T04:14:22;10.80;99.90
13186;DHT22;6658;53.080;7.428;2022-10-31T04:16:49;10.70;99.90
13186;DHT22;6658;53.080;7.428;2022-10-31T04:19:15;10.70;99.90
13186;DHT22;6658;53.080;7.428;2022-10-31T04:21:40;10.70;99.90
13186;DHT22;6658;53.080;7.428;2022-10-31T04:24:09;10.60;99.90
13186;DHT22;6658;53.080;7.428;2022-10-31T04:26:34;10.60;99.90
13186;DHT22;6658;53.080;7.428;2022-10-31T04:29:00;10.50;99.90
13186;DHT22;6658;53.080;7.428;2022-10-31T04:31:26;10.50;99.90
13186;DHT22;6658;53.080;7.428;2022-10-31T04:33:51;10.50;99.90
13186;DHT22;6658;53.080;7.428;2022-10-31T04:36:17;10.50;99.90
13186;DHT22;6658;53.080;7.428;2022-10-31T04:38:43;10.50;99.90
13186;DHT22;6658;53.080;7.428;2022-10-31T04:41:08;10.50;99.90
13186;DHT22;6658;53.080;7.428;2022-10-31T04:43:34;10.40;99.90
13186;DHT22;6658;53.080;7.428;2022-10-31T04:46:00;10.30;99.90
13186;DHT22;6658;53.080;7.428;2022-10-31T04:48:26;10.20;99.90
13186;DHT22;6658;53.080;7.428;2022-10-31T04:50:51;10.10;99.90
13186;DHT22;6658;53.080;7.428;2022-10-31T04:53:17;10.10;99.90
13186;DHT22;6658;53.080;7.428;2022-10-31T04:55:42;10.10;99.90
13186;DHT22;6658;53.080;7.428;2022-10-31T04:58:08;10.10;99.90
13186;DHT22;6658;53.080;7.428;2022-10-31T05:00:34;10.10;99.90
13186;DHT22;6658;53.080;7.428;2022-10-31T05:02:59;10.00;99.90
13186;DHT22;6658;53.080;7.428;2022-10-31T05:05:30;9.90;99.90
13186;DHT22;6658;53.080;7.428;2022-10-31T05:07:56;9.90;99.90
13186;DHT22;6658;53.080;7.428;2022-10-31T05:10:26;9.80;99.90
13186;DHT22;6658;53.080;7.428;2022-10-31T05:13:02;9.80;99.90
13186;DHT22;6658;53.080;7.428;2022-10-31T05:15:29;9.80;99.90
13186;DHT22;6658;53.080;7.428;2022-10-31T05:17:55;9.70;99.90
13186;DHT22;6658;53.080;7.428;2022-10-31T05:20:24;9.70;99.90
13186;DHT22;6658;53.080;7.428;2022-10-31T05:22:52;9.60;99.90
13186;DHT22;6658;53.080;7.428;2022-10-31T05:25:19;9.50;99.90
13186;DHT22;6658;53.080;7.428;2022-10-31T05:27:47;9.50;99.90
13186;DHT22;6658;53.080;7.428;2022-10-31T05:30:19;9.50;99.90
13186;DHT22;6658;53.080;7.428;2022-10-31T05:32:48;9.50;99.90
13186;DHT22;6658;53.080;7.428;2022-10-31T05:35:16;9.50;99.90
13186;DHT22;6658;53.080;7.428;2022-10-31T05:37:42;9.50;99.90
13186;DHT22;6658;53.080;7.428;2022-10-31T05:40:10;9.50;99.90
13186;DHT22;6658;53.080;7.428;2022-10-31T05:42:38;9.50;99.90
13186;DHT22;6658;53.080;7.428;2022-10-31T05:45:05;9.50;99.90
13186;DHT22;6658;53.080;7.428;2022-10-31T05:47:31;9.50;99.90
13186;DHT22;6658;53.080;7.428;2022-10-31T05:49:57;9.60;99.90
13186;DHT22;6658;53.080;7.428;2022-10-31T05:52:23;9.60;99.90
13186;DHT22;6658;53.080;7.428;2022-10-31T05:54:48;9.60;99.90
13186;DHT22;6658;53.080;7.428;2022-10-31T05:57:14;9.70;99.90
13186;DHT22;6658;53.080;7.428;2022-10-31T05:59:39;9.70;99.90
13186;DHT22;6658;53.080;7.428;2022-10-31T06:02:05;9.70;99.90
13186;DHT22;6658;53.080;7.428;2022-10-31T06:04:31;9.60;99.90
13186;DHT22;6658;53.080;7.428;2022-10-31T06:06:57;9.60;99.90
13186;DHT22;6658;53.080;7.428;2022-10-31T06:09:23;9.60;99.90
13186;DHT22;6658;53.080;7.428;2022-10-31T06:11:48;9.60;99.90
13186;DHT22;6658;53.080;7.428;2022-10-31T06:14:14;9.50;99.90
13186;DHT22;6658;53.080;7.428;2022-10-31T06:16:39;9.50;99.90
13186;DHT22;6658;53.080;7.428;2022-10-31T06:19:05;9.50;99.90
13186;DHT22;6658;53.080;7.428;2022-10-31T06:21:31;9.50;99.90
13186;DHT22;6658;53.080;7.428;2022-10-31T06:23:57;9.50;99.90
13186;DHT22;6658;53.080;7.428;2022-10-31T06:26:22;9.50;99.90
13186;DHT22;6658;53.080;7.428;2022-10-31T06:28:48;9.40;99.90
13186;DHT22;6658;53.080;7.428;2022-10-31T06:31:13;9.40;99.90
13186;DHT22;6658;53.080;7.428;2022-10-31T06:33:41;9.40;99.90
13186;DHT22;6658;53.080;7.428;2022-10-31T06:36:08;9.40;99.90
13186;DHT22;6658;53.080;7.428;2022-10-31T06:38:34;9.40;99.90
13186;DHT22;6658;53.080;7.428;2022-10-31T06:41:08;9.40;99.90
13186;DHT22;6658;53.080;7.428;2022-10-31T06:43:34;9.40;99.90
13186;DHT22;6658;53.080;7.428;2022-10-31T06:46:04;9.40;99.90
13186;DHT22;6658;53.080;7.428;2022-10-31T06:48:30;9.50;99.90
13186;DHT22;6658;53.080;7.428;2022-10-31T06:50:59;9.60;99.90
13186;DHT22;6658;53.080;7.428;2022-10-31T06:53:26;9.60;99.90
13186;DHT22;6658;53.080;7.428;2022-10-31T06:55:51;9.80;99.90
13186;DHT22;6658;53.080;7.428;2022-10-31T06:58:17;9.80;99.90
13186;DHT22;6658;53.080;7.428;2022-10-31T07:00:43;9.80;99.90
13186;DHT22;6658;53.080;7.428;2022-10-31T07:03:12;9.90;99.90
13186;DHT22;6658;53.080;7.428;2022-10-31T07:05:39;9.90;99.90
13186;DHT22;6658;53.080;7.428;2022-10-31T07:08:07;9.90;99.90
13186;DHT22;6658;53.080;7.428;2022-10-31T07:10:35;9.90;99.90
13186;DHT22;6658;53.080;7.428;2022-10-31T07:13:03;9.90;99.90
13186;DHT22;6658;53.080;7.428;2022-10-31T07:15:32;9.90;99.90
13186;DHT22;6658;53.080;7.428;2022-10-31T07:18:03;9.90;99.90
13186;DHT22;6658;53.080;7.428;2022-10-31T07:20:29;9.90;99.90
13186;DHT22;6658;53.080;7.428;2022-10-31T07:22:55;9.90;99.90
13186;DHT22;6658;53.080;7.428;2022-10-31T07:25:21;9.90;99.90
13186;DHT22;6658;53.080;7.428;2022-10-31T07:27:47;9.90;99.90
13186;DHT22;6658;53.080;7.428;2022-10-31T07:30:14;9.80;99.90
13186;DHT22;6658;53.080;7.428;2022-10-31T07:32:44;9.80;99.90
13186;DHT22;6658;53.080;7.428;2022-10-31T07:35:15;9.80;99.90
13186;DHT22;6658;53.080;7.428;2022-10-31T07:37:41;9.80;99.90
13186;DHT22;6658;53.080;7.428;2022-10-31T07:40:08;9.80;99.90
13186;DHT22;6658;53.080;7.428;2022-10-31T07:42:45;9.80;99.90
13186;DHT22;6658;53.080;7.428;2022-10-31T07:45:14;9.80;99.90
13186;DHT22;6658;53.080;7.428;2022-10-31T07:47:47;9.80;99.90
13186;DHT22;6658;53.080;7.428;2022-10-31T07:50:15;9.90;99.90
13186;DHT22;6658;53.080;7.428;2022-10-31T07:52:41;10.00;99.90
13186;DHT22;6658;53.080;7.428;2022-10-31T07:55:07;10.00;99.90
13186;DHT22;6658;53.080;7.428;2022-10-31T07:57:33;10.00;99.90
13186;DHT22;6658;53.080;7.428;2022-10-31T07:59:59;10.10;99.90
13186;DHT22;6658;53.080;7.428;2022-10-31T08:02:25;10.10;99.90
13186;DHT22;6658;53.080;7.428;2022-10-31T08:04:51;10.10;99.90
13186;DHT22;6658;53.080;7.428;2022-10-31T08:07:17;10.10;99.90
13186;DHT22;6658;53.080;7.428;2022-10-31T08:09:43;10.10;99.90
13186;DHT22;6658;53.080;7.428;2022-10-31T08:12:09;10.20;99.90
13186;DHT22;6658;53.080;7.428;2022-10-31T08:14:34;10.20;99.90
13186;DHT22;6658;53.080;7.428;2022-10-31T08:17:00;10.10;99.90
13186;DHT22;6658;53.080;7.428;2022-10-31T08:19:25;10.20;99.90
13186;DHT22;6658;53.080;7.428;2022-10-31T08:21:52;10.20;99.90
13186;DHT22;6658;53.080;7.428;2022-10-31T08:24:18;10.30;99.90
13186;DHT22;6658;53.080;7.428;2022-10-31T08:26:44;10.40;99.90
13186;DHT22;6658;53.080;7.428;2022-10-31T08:29:09;10.40;99.90
13186;DHT22;6658;53.080;7.428;2022-10-31T08:31:35;10.50;99.90
13186;DHT22;6658;53.080;7.428;2022-10-31T08:34:01;10.50;99.90
13186;DHT22;6658;53.080;7.428;2022-10-31T08:36:28;10.50;99.90
13186;DHT22;6658;53.080;7.428;2022-10-31T08:38:54;10.50;99.90
13186;DHT22;6658;53.080;7.428;2022-10-31T08:41:20;10.60;99.90
13186;DHT22;6658;53.080;7.428;2022-10-31T08:43:46;10.70;99.90
13186;DHT22;6658;53.080;7.428;2022-10-31T08:46:12;10.80;99.90
13186;DHT22;6658;53.080;7.428;2022-10-31T08:48:38;10.80;99.90
13186;DHT22;6658;53.080;7.428;2022-10-31T08:51:04;10.80;99.90
13186;DHT22;6658;53.080;7.428;2022-10-31T08:53:30;10.90;99.90
13186;DHT22;6658;53.080;7.428;2022-10-31T08:55:56;11.00;99.90
13186;DHT22;6658;53.080;7.428;2022-10-31T08:58:22;11.00;99.90
13186;DHT22;6658;53.080;7.428;2022-10-31T09:00:51;11.10;99.90
13186;DHT22;6658;53.080;7.428;2022-10-31T09:03:26;11.20;99.90
13186;DHT22;6658;53.080;7.428;2022-10-31T09:05:57;11.30;99.90
13186;DHT22;6658;53.080;7.428;2022-10-31T09:08:23;11.30;99.90
13186;DHT22;6658;53.080;7.428;2022-10-31T09:10:49;11.40;99.90
13186;DHT22;6658;53.080;7.428;2022-10-31T09:13:17;11.60;99.90
13186;DHT22;6658;53.080;7.428;2022-10-31T09:15:45;11.70;99.90
13186;DHT22;6658;53.080;7.428;2022-10-31T09:18:13;11.80;99.90
13186;DHT22;6658;53.080;7.428;2022-10-31T09:20:40;11.90;99.90
13186;DHT22;6658;53.080;7.428;2022-10-31T09:23:10;12.00;99.90
13186;DHT22;6658;53.080;7.428;2022-10-31T09:25:36;12.20;99.90
13186;DHT22;6658;53.080;7.428;2022-10-31T09:28:03;12.30;99.90
13186;DHT22;6658;53.080;7.428;2022-10-31T09:30:31;12.40;99.90
13186;DHT22;6658;53.080;7.428;2022-10-31T09:33:02;12.50;99.90
13186;DHT22;6658;53.080;7.428;2022-10-31T09:35:28;12.70;99.90
13186;DHT22;6658;53.080;7.428;2022-10-31T09:37:59;12.80;99.90
13186;DHT22;6658;53.080;7.428;2022-10-31T09:40:35;12.90;99.90
13186;DHT22;6658;53.080;7.428;2022-10-31T09:53:46;13.50;99.90
13186;DHT22;6658;53.080;7.428;2022-10-31T09:56:15;13.60;99.90
13186;DHT22;6658;53.080;7.428;2022-10-31T09:58:45;13.70;99.90
13186;DHT22;6658;53.080;7.428;2022-10-31T10:01:28;13.80;99.90
13186;DHT22;6658;53.080;7.428;2022-10-31T10:04:02;13.80;99.90
13186;DHT22;6658;53.080;7.428;2022-10-31T10:06:35;13.80;99.90
13186;DHT22;6658;53.080;7.428;2022-10-31T10:09:02;13.80;99.90
13186;DHT22;6658;53.080;7.428;2022-10-31T10:18:19;13.90;99.90
13186;DHT22;6658;53.080;7.428;2022-10-31T10:26:21;14.10;99.90
13186;DHT22;6658;53.080;7.428;2022-10-31T10:28:56;14.20;99.90
13186;DHT22;6658;53.080;7.428;2022-10-31T10:31:26;14.30;99.90
13186;DHT22;6658;53.080;7.428;2022-10-31T10:36:44;14.50;99.90
13186;DHT22;6658;53.080;7.428;2022-10-31T10:39:20;14.70;99.90
13186;DHT22;6658;53.080;7.428;2022-10-31T10:41:49;14.80;99.90
13186;DHT22;6658;53.080;7.428;2022-10-31T10:44:38;14.90;99.90
13186;DHT22;6658;53.080;7.428;2022-10-31T10:47:25;15.00;99.90
13186;DHT22;6658;53.080;7.428;2022-10-31T10:50:20;15.10;99.90
13186;DHT22;6658;53.080;7.428;2022-10-31T10:52:48;15.10;99.90
13186;DHT22;6658;53.080;7.428;2022-10-31T10:58:00;15.30;99.90
13186;DHT22;6658;53.080;7.428;2022-10-31T11:02:55;15.40;99.90
13186;DHT22;6658;53.080;7.428;2022-10-31T11:08:00;15.60;99.90
13186;DHT22;6658;53.080;7.428;2022-10-31T11:10:25;15.60;99.90
13186;DHT22;6658;53.080;7.428;2022-10-31T11:13:20;15.60;99.90
13186;DHT22;6658;53.080;7.428;2022-10-31T11:16:06;15.60;99.90
13186;DHT22;6658;53.080;7.428;2022-10-31T11:18:36;15.60;99.90
13186;DHT22;6658;53.080;7.428;2022-10-31T11:21:04;15.60;99.90
13186;DHT22;6658;53.080;7.428;2022-10-31T11:23:31;15.70;99.90
13186;DHT22;6658;53.080;7.428;2022-10-31T11:26:02;15.70;99.90
13186;DHT22;6658;53.080;7.428;2022-10-31T11:28:30;15.70;99.90
13186;DHT22;6658;53.080;7.428;2022-10-31T11:30:59;15.70;99.90
13186;DHT22;6658;53.080;7.428;2022-10-31T11:33:39;15.80;99.90
13186;DHT22;6658;53.080;7.428;2022-10-31T11:36:18;15.90;99.90
13186;DHT22;6658;53.080;7.428;2022-10-31T11:38:45;16.00;99.90
13186;DHT22;6658;53.080;7.428;2022-10-31T11:41:17;16.10;99.90
13186;DHT22;6658;53.080;7.428;2022-10-31T11:43:58;16.20;99.90
13186;DHT22;6658;53.080;7.428;2022-10-31T11:46:34;16.40;99.90
13186;DHT22;6658;53.080;7.428;2022-10-31T11:49:01;16.40;99.90
13186;DHT22;6658;53.080;7.428;2022-10-31T11:51:30;16.50;99.90
13186;DHT22;6658;53.080;7.428;2022-10-31T11:53:58;16.40;99.90
13186;DHT22;6658;53.080;7.428;2022-10-31T11:56:24;16.50;99.90
13186;DHT22;6658;53.080;7.428;2022-10-31T11:59:02;16.50;99.90
13186;DHT22;6658;53.080;7.428;2022-10-31T12:01:30;16.50;99.90
13186;DHT22;6658;53.080;7.428;2022-10-31T12:04:07;16.50;99.90
13186;DHT22;6658;53.080;7.428;2022-10-31T12:06:36;16.50;99.90
13186;DHT22;6658;53.080;7.428;2022-10-31T12:09:12;16.50;99.90
13186;DHT22;6658;53.080;7.428;2022-10-31T12:23:13;16.50;99.90
13186;DHT22;6658;53.080;7.428;2022-10-31T12:26:31;16.50;99.90
13186;DHT22;6658;53.080;7.428;2022-10-31T12:45:59;17.00;99.90
13186;DHT22;6658;53.080;7.428;2022-10-31T12:48:50;16.90;99.90
13186;DHT22;6658;53.080;7.428;2022-10-31T12:51:40;16.90;99.90
13186;DHT22;6658;53.080;7.428;2022-10-31T12:57:32;17.00;99.90
13186;DHT22;6658;53.080;7.428;2022-10-31T13:00:16;17.00;99.90
13186;DHT22;6658;53.080;7.428;2022-10-31T13:05:41;17.00;99.90
13186;DHT22;6658;53.080;7.428;2022-10-31T13:08:17;16.90;99.90
13186;DHT22;6658;53.080;7.428;2022-10-31T13:11:10;16.90;99.90
13186;DHT22;6658;53.080;7.428;2022-10-31T13:16:43;16.80;99.90
13186;DHT22;6658;53.080;7.428;2022-10-31T13:19:41;16.90;99.90
13186;DHT22;6658;53.080;7.428;2022-10-31T13:22:18;16.90;99.90
13186;DHT22;6658;53.080;7.428;2022-10-31T13:24:56;17.10;99.90
13186;DHT22;6658;53.080;7.428;2022-10-31T13:27:47;17.10;99.90
13186;DHT22;6658;53.080;7.428;2022-10-31T13:30:17;17.10;99.90
13186;DHT22;6658;53.080;7.428;2022-10-31T13:33:29;17.00;99.90
13186;DHT22;6658;53.080;7.428;2022-10-31T13:36:03;17.00;99.90
13186;DHT22;6658;53.080;7.428;2022-10-31T13:46:41;16.70;99.90
13186;DHT22;6658;53.080;7.428;2022-10-31T13:49:39;16.60;99.90
13186;DHT22;6658;53.080;7.428;2022-10-31T13:54:54;16.60;99.90
13186;DHT22;6658;53.080;7.428;2022-10-31T13:57:33;16.50;99.90
13186;DHT22;6658;53.080;7.428;2022-10-31T14:00:24;16.50;99.90
13186;DHT22;6658;53.080;7.428;2022-10-31T14:02:56;16.40;99.90
13186;DHT22;6658;53.080;7.428;2022-10-31T14:05:32;16.40;99.90
13186;DHT22;6658;53.080;7.428;2022-10-31T14:08:01;16.40;99.90
13186;DHT22;6658;53.080;7.428;2022-10-31T14:10:30;16.40;99.90
13186;DHT22;6658;53.080;7.428;2022-10-31T14:15:31;16.40;99.90
13186;DHT22;6658;53.080;7.428;2022-10-31T14:18:06;16.40;99.90
13186;DHT22;6658;53.080;7.428;2022-10-31T14:20:44;16.40;99.90
13186;DHT22;6658;53.080;7.428;2022-10-31T14:23:31;16.40;99.90
13186;DHT22;6658;53.080;7.428;2022-10-31T14:28:45;16.30;99.90
13186;DHT22;6658;53.080;7.428;2022-10-31T14:33:53;16.30;99.90
13186;DHT22;6658;53.080;7.428;2022-10-31T14:36:42;16.30;99.90
13186;DHT22;6658;53.080;7.428;2022-10-31T14:39:20;16.30;99.90
13186;DHT22;6658;53.080;7.428;2022-10-31T14:47:39;16.20;99.90
13186;DHT22;6658;53.080;7.428;2022-10-31T14:52:52;16.10;99.90
13186;DHT22;6658;53.080;7.428;2022-10-31T14:55:19;16.10;99.90
13186;DHT22;6658;53.080;7.428;2022-10-31T14:57:55;16.10;99.90
13186;DHT22;6658;53.080;7.428;2022-10-31T15:00:23;16.10;99.90
13186;DHT22;6658;53.080;7.428;2022-10-31T15:03:13;16.00;99.90
13186;DHT22;6658;53.080;7.428;2022-10-31T15:06:02;16.00;99.90
13186;DHT22;6658;53.080;7.428;2022-10-31T15:10:56;15.90;99.90
13186;DHT22;6658;53.080;7.428;2022-10-31T15:13:22;15.90;99.90
13186;DHT22;6658;53.080;7.428;2022-10-31T15:15:50;15.90;99.90
13186;DHT22;6658;53.080;7.428;2022-10-31T15:18:26;15.90;99.90
13186;DHT22;6658;53.080;7.428;2022-10-31T15:20:54;15.80;99.90
13186;DHT22;6658;53.080;7.428;2022-10-31T15:23:28;15.80;99.90
13186;DHT22;6658;53.080;7.428;2022-10-31T15:26:02;15.70;99.90
13186;DHT22;6658;53.080;7.428;2022-10-31T15:28:29;15.70;99.90
13186;DHT22;6658;53.080;7.428;2022-10-31T15:30:58;15.70;99.90
13186;DHT22;6658;53.080;7.428;2022-10-31T15:33:40;15.60;99.90
13186;DHT22;6658;53.080;7.428;2022-10-31T15:36:21;15.60;99.90
13186;DHT22;6658;53.080;7.428;2022-10-31T15:38:48;15.60;99.90
13186;DHT22;6658;53.080;7.428;2022-10-31T15:43:54;15.50;99.90
13186;DHT22;6658;53.080;7.428;2022-10-31T15:46:20;15.40;99.90
13186;DHT22;6658;53.080;7.428;2022-10-31T15:48:47;15.40;99.90
13186;DHT22;6658;53.080;7.428;2022-10-31T15:51:13;15.30;99.90
13186;DHT22;6658;53.080;7.428;2022-10-31T15:53:46;15.20;99.90
13186;DHT22;6658;53.080;7.428;2022-10-31T15:56:20;15.20;99.90
13186;DHT22;6658;53.080;7.428;2022-10-31T15:58:48;15.20;99.90
13186;DHT22;6658;53.080;7.428;2022-10-31T16:01:24;15.20;99.90
13186;DHT22;6658;53.080;7.428;2022-10-31T16:04:00;15.20;99.90
13186;DHT22;6658;53.080;7.428;2022-10-31T16:06:26;15.20;99.90
13186;DHT22;6658;53.080;7.428;2022-10-31T16:08:52;15.20;99.90
13186;DHT22;6658;53.080;7.428;2022-10-31T16:14:05;15.10;99.90
13186;DHT22;6658;53.080;7.428;2022-10-31T16:16:34;15.10;99.90
13186;DHT22;6658;53.080;7.428;2022-10-31T16:19:05;15.10;99.90
13186;DHT22;6658;53.080;7.428;2022-10-31T16:21:38;15.10;99.90
13186;DHT22;6658;53.080;7.428;2022-10-31T16:25:12;15.10;99.90
13186;DHT22;6658;53.080;7.428;2022-10-31T16:27:15;15.10;99.90
13186;DHT22;6658;53.080;7.428;2022-10-31T16:29:43;15.10;99.90
13186;DHT22;6658;53.080;7.428;2022-10-31T16:32:34;15.10;99.90
13186;DHT22;6658;53.080;7.428;2022-10-31T16:35:16;15.10;99.90
13186;DHT22;6658;53.080;7.428;2022-10-31T16:37:42;15.10;99.90
13186;DHT22;6658;53.080;7.428;2022-10-31T16:40:11;15.10;99.90
13186;DHT22;6658;53.080;7.428;2022-10-31T16:42:38;15.10;99.90
13186;DHT22;6658;53.080;7.428;2022-10-31T16:45:05;15.00;99.90
13186;DHT22;6658;53.080;7.428;2022-10-31T16:47:31;15.10;99.90
13186;DHT22;6658;53.080;7.428;2022-10-31T16:49:58;15.10;99.90
13186;DHT22;6658;53.080;7.428;2022-10-31T16:52:25;15.10;99.90
13186;DHT22;6658;53.080;7.428;2022-10-31T16:54:51;15.10;99.90
13186;DHT22;6658;53.080;7.428;2022-10-31T16:57:20;15.10;99.90
13186;DHT22;6658;53.080;7.428;2022-10-31T16:59:52;15.00;99.90
13186;DHT22;6658;53.080;7.428;2022-10-31T17:02:19;15.10;99.90
13186;DHT22;6658;53.080;7.428;2022-10-31T17:04:45;15.10;99.90
13186;DHT22;6658;53.080;7.428;2022-10-31T17:07:11;15.10;99.90
13186;DHT22;6658;53.080;7.428;2022-10-31T17:09:37;15.00;99.90
13186;DHT22;6658;53.080;7.428;2022-10-31T17:12:03;15.00;99.90
13186;DHT22;6658;53.080;7.428;2022-10-31T17:14:30;14.90;99.90
13186;DHT22;6658;53.080;7.428;2022-10-31T17:16:56;14.90;99.90
13186;DHT22;6658;53.080;7.428;2022-10-31T17:19:21;14.90;99.90
13186;DHT22;6658;53.080;7.428;2022-10-31T17:21:47;14.90;99.90
13186;DHT22;6658;53.080;7.428;2022-10-31T17:24:13;15.00;99.90
13186;DHT22;6658;53.080;7.428;2022-10-31T17:26:39;14.90;99.90
13186;DHT22;6658;53.080;7.428;2022-10-31T17:29:05;14.90;99.90
13186;DHT22;6658;53.080;7.428;2022-10-31T17:31:33;14.80;99.90
13186;DHT22;6658;53.080;7.428;2022-10-31T17:34:00;14.80;99.90
13186;DHT22;6658;53.080;7.428;2022-10-31T17:36:27;14.80;99.90
13186;DHT22;6658;53.080;7.428;2022-10-31T17:38:53;14.80;99.90
13186;DHT22;6658;53.080;7.428;2022-10-31T17:41:18;14.80;99.90
13186;DHT22;6658;53.080;7.428;2022-10-31T17:43:44;14.80;99.90
13186;DHT22;6658;53.080;7.428;2022-10-31T17:46:10;14.80;99.90
13186;DHT22;6658;53.080;7.428;2022-10-31T17:48:36;14.80;99.90
13186;DHT22;6658;53.080;7.428;2022-10-31T17:51:04;14.80;99.90
13186;DHT22;6658;53.080;7.428;2022-10-31T17:53:31;14.70;99.90
13186;DHT22;6658;53.080;7.428;2022-10-31T17:56:05;14.70;99.90
13186;DHT22;6658;53.080;7.428;2022-10-31T17:58:31;14.70;99.90
13186;DHT22;6658;53.080;7.428;2022-10-31T18:00:58;14.70;99.90
13186;DHT22;6658;53.080;7.428;2022-10-31T18:03:25;14.70;99.90
13186;DHT22;6658;53.080;7.428;2022-10-31T18:05:53;14.70;99.90
13186;DHT22;6658;53.080;7.428;2022-10-31T18:08:19;14.70;99.90
13186;DHT22;6658;53.080;7.428;2022-10-31T18:10:48;14.70;99.90
13186;DHT22;6658;53.080;7.428;2022-10-31T18:13:13;14.70;99.90
13186;DHT22;6658;53.080;7.428;2022-10-31T18:15:39;14.70;99.90
13186;DHT22;6658;53.080;7.428;2022-10-31T18:18:05;14.60;99.90
13186;DHT22;6658;53.080;7.428;2022-10-31T18:20:32;14.60;99.90
13186;DHT22;6658;53.080;7.428;2022-10-31T18:22:57;14.60;99.90
13186;DHT22;6658;53.080;7.428;2022-10-31T18:25:23;14.60;99.90
13186;DHT22;6658;53.080;7.428;2022-10-31T18:27:49;14.60;99.90